createdAt,value
2022-08-22T00:01:13.400Z,2.28
2022-08-22T00:02:52.480Z,1.60
2022-08-22T00:04:00.518Z,3.97
2022-08-22T00:06:40.422Z,2.40
2022-08-22T00:09:29.449Z,2.55
2022-08-22T00:12:10.870Z,2.00
2022-08-22T00:14:49.790Z,2.20
2022-08-22T00:17:29.856Z,1.83
2022-08-22T00:20:06.086Z,2.42
2022-08-22T00:22:40.645Z,2.08
2022-08-22T00:25:26.035Z,2.30
2022-08-22T00:28:06.278Z,2.20
2022-08-22T00:30:43.611Z,2.15
2022-08-22T00:33:34.274Z,2.22
2022-08-22T00:36:16.334Z,2.30
2022-08-22T00:38:53.135Z,2.65
2022-08-22T00:41:41.989Z,1.92
2022-08-22T00:44:17.879Z,1.98
2022-08-22T00:46:54.211Z,2.00
2022-08-22T00:49:55.452Z,2.08
2022-08-22T00:52:47.065Z,2.00
2022-08-22T00:55:37.151Z,1.70
2022-08-22T00:58:09.749Z,2.05
2022-08-22T01:00:44.883Z,2.12
2022-08-22T01:03:40.594Z,2.10
2022-08-22T01:06:22.450Z,2.25
2022-08-22T01:09:15.083Z,1.90
2022-08-22T01:12:00.919Z,2.20
2022-08-22T01:14:47.790Z,2.60
2022-08-22T01:17:44.424Z,2.47
2022-08-22T01:20:42.192Z,2.80
2022-08-22T01:23:40.537Z,1.73
2022-08-22T01:26:17.088Z,1.70
2022-08-22T01:29:11.561Z,1.85
2022-08-22T01:31:52.261Z,2.03
2022-08-22T01:34:48.586Z,1.87
2022-08-22T01:37:52.318Z,1.80
2022-08-22T01:40:57.746Z,2.28
2022-08-22T01:43:59.818Z,1.75
2022-08-22T01:46:49.362Z,1.98
2022-08-22T01:49:23.760Z,2.10
2022-08-22T01:52:01.812Z,1.83
2022-08-22T01:54:44.867Z,1.70
2022-08-22T01:57:13.104Z,2.25
2022-08-22T01:59:53.078Z,1.92
2022-08-22T02:02:47.207Z,1.80
2022-08-22T02:05:37.388Z,3.65
2022-08-22T02:08:32.042Z,2.15
2022-08-22T02:11:11.902Z,1.92
2022-08-22T02:13:58.716Z,1.92
2022-08-22T02:16:48.306Z,2.12
2022-08-22T02:19:15.252Z,2.00
2022-08-22T02:21:57.798Z,1.98
2022-08-22T02:24:33.683Z,1.95
2022-08-22T02:27:05.530Z,1.85
2022-08-22T02:29:50.352Z,2.90
2022-08-22T02:32:20.104Z,1.90
2022-08-22T02:35:10.734Z,2.40
2022-08-22T02:37:54.177Z,2.17
2022-08-22T02:40:35.059Z,1.98
2022-08-22T02:43:27.129Z,2.60
2022-08-22T02:46:17.243Z,2.30
2022-08-22T02:48:56.142Z,2.20
2022-08-22T02:51:35.934Z,1.73
2022-08-22T02:54:30.454Z,2.00
2022-08-22T02:57:19.385Z,1.98
2022-08-22T03:00:30.978Z,1.58
2022-08-22T03:03:00.241Z,2.03
2022-08-22T03:05:41.739Z,2.00
2022-08-22T03:08:33.815Z,1.87
2022-08-22T03:11:05.320Z,1.85
2022-08-22T03:13:38.010Z,1.40
2022-08-22T03:16:15.442Z,2.15
2022-08-22T03:18:57.885Z,1.58
2022-08-22T03:21:25.380Z,1.80
2022-08-22T03:24:23.699Z,2.00
2022-08-22T03:26:52.467Z,1.55
2022-08-22T03:29:34.051Z,1.80
2022-08-22T03:32:25.359Z,1.95
2022-08-22T03:34:56.683Z,1.55
2022-08-22T03:37:45.399Z,1.70
2022-08-22T03:40:54.058Z,1.60
2022-08-22T03:43:30.059Z,2.28
2022-08-22T03:46:23.570Z,1.62
2022-08-22T03:48:57.070Z,1.98
2022-08-22T03:52:03.111Z,1.50
2022-08-22T03:54:44.910Z,1.30
2022-08-22T03:57:36.471Z,1.80
2022-08-22T04:00:57.297Z,1.62
2022-08-22T04:03:36.017Z,2.05
2022-08-22T04:06:12.607Z,1.65
2022-08-22T04:09:01.838Z,1.80
2022-08-22T04:11:57.696Z,1.70
2022-08-22T04:14:24.549Z,1.77
2022-08-22T04:17:01.125Z,1.62
2022-08-22T04:19:46.791Z,1.60
2022-08-22T04:22:46.822Z,1.20
2022-08-22T04:25:25.677Z,1.60
2022-08-22T04:28:01.091Z,2.03
2022-08-22T04:30:31.902Z,1.67
2022-08-22T04:33:24.754Z,1.60
2022-08-22T04:36:00.831Z,1.50
2022-08-22T04:38:31.888Z,1.42
2022-08-22T04:41:04.879Z,1.85
2022-08-22T04:43:45.206Z,1.60
2022-08-22T04:46:36.996Z,1.62
2022-08-22T04:49:51.600Z,1.55
2022-08-22T04:52:48.992Z,1.83
2022-08-22T04:55:54.113Z,1.62
2022-08-22T04:58:32.929Z,1.83
2022-08-22T05:01:25.744Z,2.12
2022-08-22T05:03:58.308Z,1.65
2022-08-22T05:06:29.663Z,1.85
2022-08-22T05:09:00.850Z,1.67
2022-08-22T05:11:29.727Z,1.70
2022-08-22T05:14:05.394Z,1.87
2022-08-22T05:16:40.283Z,2.00
2022-08-22T05:19:16.879Z,1.55
2022-08-22T05:21:48.115Z,1.65
2022-08-22T05:24:28.233Z,1.65
2022-08-22T05:26:58.074Z,1.50
2022-08-22T05:29:30.153Z,1.60
2022-08-22T05:32:05.342Z,1.80
2022-08-22T05:34:39.284Z,1.77
2022-08-22T05:37:49.937Z,1.62
2022-08-22T05:40:22.645Z,1.55
2022-08-22T05:42:49.970Z,2.17
2022-08-22T05:45:19.013Z,1.80
2022-08-22T05:47:52.554Z,2.03
2022-08-22T05:50:41.635Z,1.60
2022-08-22T05:53:17.882Z,1.95
2022-08-22T05:56:03.068Z,1.80
2022-08-22T05:58:39.182Z,1.60
2022-08-22T06:01:31.413Z,1.45
2022-08-22T06:04:07.463Z,2.00
2022-08-22T06:07:01.650Z,1.70
2022-08-22T06:09:35.481Z,1.60
2022-08-22T06:12:24.120Z,1.75
2022-08-22T06:14:57.042Z,1.67
2022-08-22T06:17:36.238Z,1.70
2022-08-22T06:20:09.707Z,1.65
2022-08-22T06:22:42.091Z,1.65
2022-08-22T06:25:14.204Z,1.55
2022-08-22T06:27:43.162Z,1.42
2022-08-22T06:30:15.476Z,1.60
2022-08-22T06:33:00.256Z,1.40
2022-08-22T06:35:57.612Z,1.40
2022-08-22T06:38:32.493Z,1.80
2022-08-22T06:41:03.095Z,1.52
2022-08-22T06:43:38.029Z,1.50
2022-08-22T06:46:07.453Z,1.60
2022-08-22T06:48:37.036Z,1.60
2022-08-22T06:51:07.207Z,1.70
2022-08-22T06:53:56.774Z,1.42
2022-08-22T06:56:33.556Z,1.50
2022-08-22T06:59:07.868Z,1.40
2022-08-22T07:01:41.125Z,1.40
2022-08-22T07:04:10.311Z,1.70
2022-08-22T07:06:41.359Z,1.58
2022-08-22T07:09:17.057Z,1.20
2022-08-22T07:11:44.159Z,1.52
2022-08-22T07:14:15.632Z,1.50
2022-08-22T07:16:52.257Z,1.70
2022-08-22T07:19:41.667Z,1.23
2022-08-22T07:22:16.429Z,1.10
2022-08-22T07:24:52.288Z,1.52
2022-08-22T07:27:31.477Z,1.40
2022-08-22T07:30:14.288Z,1.58
2022-08-22T07:32:49.623Z,1.70
2022-08-22T07:35:20.655Z,1.98
2022-08-22T07:38:33.659Z,1.20
2022-08-22T07:41:22.507Z,1.60
2022-08-22T07:44:00.489Z,1.40
2022-08-22T07:46:39.763Z,1.60
2022-08-22T07:49:32.647Z,1.50
2022-08-22T07:52:08.188Z,1.40
2022-08-22T07:54:47.157Z,1.65
2022-08-22T07:57:29.618Z,1.40
2022-08-22T08:00:00.197Z,1.50
2022-08-22T08:02:27.610Z,1.70
2022-08-22T08:04:57.938Z,1.95
2022-08-22T08:07:29.044Z,1.40
2022-08-22T08:10:19.457Z,1.60
2022-08-22T08:12:58.005Z,1.50
2022-08-22T08:15:32.984Z,1.42
2022-08-22T08:18:06.013Z,1.33
2022-08-22T08:20:36.250Z,1.45
2022-08-22T08:23:07.059Z,1.80
2022-08-22T08:25:53.284Z,1.65
2022-08-22T08:28:34.234Z,1.65
2022-08-22T08:31:28.424Z,1.95
2022-08-22T08:34:13.484Z,1.50
2022-08-22T08:37:04.099Z,1.12
2022-08-22T08:39:39.356Z,1.35
2022-08-22T08:42:30.497Z,1.50
2022-08-22T08:45:06.391Z,1.30
2022-08-22T08:47:47.943Z,2.78
2022-08-22T08:50:35.195Z,1.27
2022-08-22T08:53:31.264Z,1.25
2022-08-22T08:56:07.248Z,1.37
2022-08-22T08:58:41.316Z,1.25
2022-08-22T09:01:53.532Z,1.10
2022-08-22T09:04:53.739Z,1.20
2022-08-22T09:07:31.572Z,1.70
2022-08-22T09:10:29.321Z,1.27
2022-08-22T09:13:34.582Z,1.12
2022-08-22T09:16:26.529Z,1.15
2022-08-22T09:19:11.750Z,1.10
2022-08-22T09:25:06.608Z,1.33
2022-08-22T09:27:45.619Z,0.93
2022-08-22T09:33:16.161Z,0.95
2022-08-22T09:36:12.987Z,0.80
2022-08-22T09:38:47.846Z,0.85
2022-08-22T09:41:44.412Z,0.62
2022-08-22T09:44:14.197Z,0.88
2022-08-22T09:47:06.658Z,0.60
2022-08-22T09:49:56.792Z,1.00
2022-08-22T09:52:34.095Z,0.77
2022-08-22T09:55:15.998Z,1.15
2022-08-22T09:57:50.571Z,0.90
2022-08-22T10:00:45.288Z,1.20
2022-08-22T10:03:22.779Z,0.80
2022-08-22T10:06:09.176Z,1.35
2022-08-22T10:08:39.302Z,1.42
2022-08-22T10:11:21.772Z,0.70
2022-08-22T10:14:13.202Z,0.95
2022-08-22T10:17:21.799Z,1.10
2022-08-22T10:20:09.852Z,0.88
2022-08-22T10:22:55.951Z,0.90
2022-08-22T10:25:43.264Z,1.20
2022-08-22T10:28:28.481Z,0.88
2022-08-22T10:31:28.293Z,1.10
2022-08-22T10:34:09.048Z,1.10
2022-08-22T10:36:50.783Z,1.20
2022-08-22T10:39:24.841Z,1.33
2022-08-22T10:42:13.602Z,1.08
2022-08-22T10:45:08.460Z,1.30
2022-08-22T10:47:42.635Z,1.35
2022-08-22T10:50:20.340Z,1.10
2022-08-22T10:53:14.308Z,1.10
2022-08-22T10:55:45.107Z,1.50
2022-08-22T10:58:16.534Z,1.10
2022-08-22T11:00:56.832Z,1.67
2022-08-22T11:03:32.806Z,1.08
2022-08-22T11:06:05.397Z,1.98
2022-08-22T11:08:51.150Z,1.62
2022-08-22T11:11:41.714Z,1.30
2022-08-22T11:14:30.768Z,1.33
2022-08-22T11:17:27.991Z,1.60
2022-08-22T11:20:07.257Z,1.52
2022-08-22T11:23:21.030Z,1.85
2022-08-22T11:26:07.575Z,1.42
2022-08-22T11:28:47.353Z,1.48
2022-08-22T11:31:36.810Z,1.30
2022-08-22T11:34:20.459Z,1.30
2022-08-22T11:36:51.643Z,1.73
2022-08-22T11:39:40.375Z,1.40
2022-08-22T11:42:14.977Z,1.92
2022-08-22T11:45:01.194Z,1.67
2022-08-22T11:47:33.473Z,1.87
2022-08-22T11:50:28.306Z,1.67
2022-08-22T11:53:21.643Z,1.45
2022-08-22T11:55:58.426Z,1.60
2022-08-22T11:58:29.289Z,1.30
2022-08-22T12:01:17.162Z,1.52
2022-08-22T12:04:03.469Z,1.40
2022-08-22T12:06:49.696Z,1.60
2022-08-22T12:09:27.760Z,2.00
2022-08-22T12:11:59.670Z,1.48
2022-08-22T12:14:57.210Z,1.58
2022-08-22T12:17:55.043Z,1.30
2022-08-22T12:20:37.829Z,1.35
2022-08-22T12:23:19.487Z,1.73
2022-08-22T12:26:05.032Z,1.70
2022-08-22T12:28:40.995Z,1.37
2022-08-22T12:31:40.023Z,1.70
2022-08-22T12:34:34.020Z,1.20
2022-08-22T12:37:06.728Z,1.40
2022-08-22T12:39:47.352Z,1.60
2022-08-22T12:43:09.010Z,1.58
2022-08-22T12:45:53.453Z,1.50
2022-08-22T12:49:00.914Z,3.47
2022-08-22T12:51:58.104Z,1.40
2022-08-22T12:55:03.588Z,1.70
2022-08-22T12:58:06.956Z,1.37
2022-08-22T13:00:45.227Z,1.10
2022-08-22T13:03:29.669Z,0.90
2022-08-22T13:06:00.689Z,1.23
2022-08-22T13:08:44.341Z,0.90
2022-08-22T13:11:22.874Z,1.10
2022-08-22T13:13:56.568Z,0.93
2022-08-22T13:16:26.511Z,0.90
2022-08-22T13:19:07.403Z,1.00
2022-08-22T13:21:43.437Z,0.75
2022-08-22T13:24:16.645Z,0.82
2022-08-22T13:26:58.650Z,0.85
2022-08-22T13:29:42.486Z,1.05
2022-08-22T13:32:23.531Z,0.75
2022-08-22T13:34:56.613Z,0.70
2022-08-22T13:37:36.178Z,0.90
2022-08-22T13:40:08.947Z,0.80
2022-08-22T13:42:49.992Z,1.00
2022-08-22T13:45:28.714Z,0.90
2022-08-22T13:48:08.859Z,0.80
2022-08-22T13:51:01.643Z,1.33
2022-08-22T13:54:00.916Z,0.80
2022-08-22T13:56:38.868Z,1.08
2022-08-22T13:59:47.070Z,1.00
2022-08-22T14:02:43.529Z,1.15
2022-08-22T14:05:17.081Z,1.10
2022-08-22T14:08:13.018Z,0.90
2022-08-22T14:10:55.275Z,0.98
2022-08-22T14:13:47.190Z,1.02
2022-08-22T14:16:15.126Z,0.80
2022-08-22T14:18:50.204Z,1.12
2022-08-22T14:21:40.927Z,0.70
2022-08-22T14:24:13.723Z,0.57
2022-08-22T14:26:54.451Z,1.00
2022-08-22T14:29:28.725Z,0.88
2022-08-22T14:32:12.146Z,1.00
2022-08-22T14:34:42.772Z,0.85
2022-08-22T14:37:40.783Z,0.80
2022-08-22T14:40:32.415Z,1.12
2022-08-22T14:43:07.790Z,1.25
2022-08-22T14:45:39.241Z,1.30
2022-08-22T14:48:29.752Z,1.15
2022-08-22T14:51:03.923Z,0.93
2022-08-22T14:53:37.153Z,1.12
2022-08-22T14:56:22.339Z,1.27
2022-08-22T14:59:12.550Z,1.20
2022-08-22T15:02:02.739Z,1.10
2022-08-22T15:04:42.515Z,1.15
2022-08-22T15:07:10.734Z,0.90
2022-08-22T15:10:11.986Z,0.70
2022-08-22T15:12:49.869Z,1.08
2022-08-22T15:15:49.763Z,0.85
2022-08-22T15:18:30.462Z,0.90
2022-08-22T15:21:27.978Z,1.10
2022-08-22T15:24:03.429Z,1.05
2022-08-22T15:26:35.802Z,0.90
2022-08-22T15:29:24.362Z,1.40
2022-08-22T15:31:54.782Z,1.17
2022-08-22T15:34:32.692Z,1.20
2022-08-22T15:37:32.601Z,1.37
2022-08-22T15:39:59.692Z,1.35
2022-08-22T15:42:30.697Z,1.20
2022-08-22T15:44:59.426Z,1.80
2022-08-22T15:47:36.216Z,1.50
2022-08-22T15:50:26.189Z,1.40
2022-08-22T15:53:52.080Z,1.40
2022-08-22T15:56:24.035Z,1.50
2022-08-22T15:59:21.928Z,1.12
2022-08-22T16:01:56.796Z,1.48
2022-08-22T16:04:40.386Z,1.15
2022-08-22T16:08:09.030Z,0.90
2022-08-22T16:10:45.850Z,1.05
2022-08-22T16:13:29.423Z,0.90
2022-08-22T16:15:58.658Z,0.70
2022-08-22T16:18:34.573Z,0.85
2022-08-22T16:21:10.022Z,0.45
2022-08-22T16:23:49.774Z,0.60
2022-08-22T16:26:32.559Z,0.50
2022-08-22T16:28:59.498Z,0.70
2022-08-22T16:31:34.395Z,0.60
2022-08-22T16:34:16.627Z,0.50
2022-08-22T16:37:03.542Z,0.50
2022-08-22T16:39:43.726Z,0.50
2022-08-22T16:42:16.148Z,0.50
2022-08-22T16:44:48.323Z,0.60
2022-08-22T16:47:20.670Z,0.50
2022-08-22T16:49:56.054Z,0.55
2022-08-22T16:52:25.867Z,0.50
2022-08-22T16:54:52.892Z,0.50
2022-08-22T16:57:29.786Z,0.50
2022-08-22T17:00:22.744Z,0.47
2022-08-22T17:03:03.897Z,0.30
2022-08-22T17:05:37.468Z,0.50
2022-08-22T17:08:16.781Z,0.60
2022-08-22T17:10:59.273Z,0.50
2022-08-22T17:13:38.262Z,0.47
2022-08-22T17:16:24.704Z,0.80
2022-08-22T17:19:10.607Z,0.88
2022-08-22T17:21:50.721Z,0.60
2022-08-22T17:24:39.289Z,0.70
2022-08-22T17:27:37.402Z,0.50
2022-08-22T17:30:14.943Z,0.77
2022-08-22T17:33:12.489Z,0.70
2022-08-22T17:36:08.226Z,0.75
2022-08-22T17:39:24.395Z,0.60
2022-08-22T17:42:21.064Z,0.70
2022-08-22T17:45:33.294Z,1.10
2022-08-22T17:48:46.012Z,0.90
2022-08-22T17:51:21.895Z,0.70
2022-08-22T17:54:05.726Z,0.75
2022-08-22T17:56:46.338Z,1.35
2022-08-22T17:59:22.581Z,1.08
2022-08-22T18:02:16.413Z,1.00
2022-08-22T18:05:09.354Z,1.37
2022-08-22T18:07:45.855Z,1.45
2022-08-22T18:10:24.648Z,1.00
2022-08-22T18:13:08.182Z,1.17
2022-08-22T18:15:56.930Z,1.30
2022-08-22T18:18:46.343Z,0.95
2022-08-22T18:21:37.355Z,1.10
2022-08-22T18:24:10.175Z,1.27
2022-08-22T18:26:42.848Z,1.85
2022-08-22T18:29:13.520Z,1.35
2022-08-22T18:31:49.477Z,1.40
2022-08-22T18:34:33.467Z,1.40
2022-08-22T18:37:20.378Z,1.40
2022-08-22T18:39:56.369Z,1.42
2022-08-22T18:42:55.497Z,1.55
2022-08-22T18:45:44.681Z,1.30
2022-08-22T18:48:49.571Z,1.40
2022-08-22T18:51:29.892Z,1.60
2022-08-22T18:54:06.943Z,1.15
2022-08-22T18:56:54.678Z,1.17
2022-08-22T18:59:37.824Z,1.12
2022-08-22T19:02:11.400Z,1.58
2022-08-22T19:05:12.077Z,1.50
2022-08-22T19:08:17.830Z,1.65
2022-08-22T19:11:09.558Z,1.60
2022-08-22T19:14:08.291Z,1.60
2022-08-22T19:16:56.195Z,1.25
2022-08-22T19:20:09.219Z,1.42
2022-08-22T19:22:36.993Z,1.23
2022-08-22T19:25:26.161Z,1.40
2022-08-22T19:28:17.239Z,1.30
2022-08-22T19:30:46.029Z,1.02
2022-08-22T19:33:40.206Z,1.20
2022-08-22T19:36:11.973Z,1.45
2022-08-22T19:39:08.886Z,1.45
2022-08-22T19:41:53.739Z,1.40
2022-08-22T19:44:20.636Z,1.95
2022-08-22T19:47:05.460Z,2.05
2022-08-22T19:49:38.586Z,1.90
2022-08-22T19:52:33.411Z,2.25
2022-08-22T19:55:42.542Z,2.15
2022-08-22T19:58:12.604Z,2.22
2022-08-22T20:00:53.222Z,2.20
2022-08-22T20:04:20.614Z,4.65
2022-08-22T20:07:01.897Z,4.37
2022-08-22T20:10:13.542Z,3.50
2022-08-22T20:12:55.103Z,4.20
2022-08-22T20:15:25.107Z,3.90
2022-08-22T20:20:57.884Z,4.07
2022-08-22T20:23:31.645Z,3.72
2022-08-22T20:25:59.678Z,5.53
2022-08-22T20:28:44.423Z,4.53
2022-08-22T20:31:20.095Z,5.80
2022-08-22T20:33:51.298Z,5.68
2022-08-22T20:36:28.557Z,5.20
2022-08-22T20:39:02.122Z,6.78
2022-08-22T20:41:38.042Z,6.93
2022-08-22T20:44:12.540Z,6.68
2022-08-22T20:47:07.286Z,7.95
2022-08-22T20:49:48.472Z,8.07
2022-08-22T20:52:37.762Z,5.68
2022-08-22T20:55:31.256Z,6.32
2022-08-22T20:58:22.683Z,7.30
2022-08-22T21:00:53.590Z,7.55
2022-08-22T21:03:35.930Z,7.28
2022-08-22T21:06:30.935Z,6.60
2022-08-22T21:09:32.561Z,7.22
2022-08-22T21:12:01.700Z,6.43
2022-08-22T21:14:34.409Z,7.37
2022-08-22T21:17:20.978Z,8.57
2022-08-22T21:19:48.016Z,8.57
2022-08-22T21:22:27.098Z,8.32
2022-08-22T21:24:59.448Z,9.60
2022-08-22T21:27:32.343Z,8.05
2022-08-22T21:30:01.509Z,8.15
2022-08-22T21:32:43.452Z,7.32
2022-08-22T21:35:30.446Z,7.85
2022-08-22T21:37:59.479Z,7.72
2022-08-22T21:40:35.742Z,8.50
2022-08-22T21:43:05.848Z,6.90
2022-08-22T21:45:37.906Z,8.73
2022-08-22T21:48:35.451Z,7.72
2022-08-22T21:51:42.932Z,9.70
2022-08-22T21:54:32.002Z,8.57
2022-08-22T21:57:09.333Z,9.48
2022-08-22T21:59:51.869Z,9.20
2022-08-22T22:02:38.303Z,9.85
2022-08-22T22:05:13.694Z,11.50
2022-08-22T22:07:42.916Z,10.70
2022-08-22T22:10:12.777Z,9.43
2022-08-22T22:12:44.567Z,10.85
2022-08-22T22:15:18.195Z,10.90
2022-08-22T22:17:45.185Z,8.30
2022-08-22T22:20:13.384Z,10.10
2022-08-22T22:22:43.188Z,10.43
2022-08-22T22:25:40.415Z,10.02
2022-08-22T22:28:05.400Z,13.02
2022-08-22T22:30:32.373Z,11.27
2022-08-22T22:32:59.367Z,11.90
2022-08-22T22:35:26.826Z,10.57
2022-08-22T22:37:54.399Z,9.68
2022-08-22T22:40:21.474Z,8.63
2022-08-22T22:42:48.495Z,11.07
2022-08-22T22:45:15.407Z,12.07
2022-08-22T22:47:42.368Z,8.23
2022-08-22T22:50:09.500Z,10.35
2022-08-22T22:52:40.691Z,11.95
2022-08-22T22:55:09.051Z,11.40
2022-08-22T22:57:42.536Z,9.43
2022-08-22T23:00:11.203Z,9.73
2022-08-22T23:02:38.700Z,12.57
2022-08-22T23:05:07.285Z,12.10
2022-08-22T23:07:34.339Z,11.70
2022-08-22T23:10:02.218Z,12.80
2022-08-22T23:12:29.378Z,11.65
2022-08-22T23:14:56.302Z,9.65
2022-08-22T23:17:23.267Z,12.60
2022-08-22T23:19:51.359Z,11.38
2022-08-22T23:22:18.575Z,11.10
2022-08-22T23:24:45.810Z,13.93
2022-08-22T23:27:12.816Z,9.82
2022-08-22T23:29:41.212Z,10.55
2022-08-22T23:32:10.586Z,12.82
2022-08-22T23:34:43.923Z,11.07
2022-08-22T23:37:11.015Z,12.60
2022-08-22T23:39:38.655Z,10.43
2022-08-22T23:42:07.781Z,9.73
2022-08-22T23:44:36.859Z,10.73
2022-08-22T23:47:05.811Z,11.43
2022-08-22T23:49:33.318Z,9.55
2022-08-22T23:52:00.582Z,12.23
2022-08-22T23:54:28.210Z,11.20
2022-08-22T23:56:58.022Z,14.05
2022-08-22T23:59:30.663Z,9.23
